createdAt,value
2018-11-14T00:00:30.632Z,14.07
2018-11-14T00:02:59.554Z,14.60
2018-11-14T00:05:27.433Z,14.83
2018-11-14T00:07:55.394Z,15.77
2018-11-14T00:10:23.331Z,15.77
2018-11-14T00:12:51.208Z,14.57
2018-11-14T00:15:20.558Z,14.33
2018-11-14T00:17:49.466Z,15.13
2018-11-14T00:20:17.375Z,14.30
2018-11-14T00:22:46.398Z,18.80
2018-11-14T00:25:14.343Z,20.27
2018-11-14T00:27:42.233Z,17.60
2018-11-14T00:30:16.772Z,15.97
2018-11-14T00:32:44.659Z,15.87
2018-11-14T00:35:12.959Z,16.33
2018-11-14T00:37:41.336Z,16.20
2018-11-14T00:40:11.175Z,15.70
2018-11-14T00:42:39.551Z,18.47
2018-11-14T00:45:09.824Z,18.27
2018-11-14T00:47:37.882Z,17.50
2018-11-14T00:50:06.642Z,18.20
2018-11-14T00:52:34.588Z,17.90
2018-11-14T00:55:02.524Z,17.03
2018-11-14T00:57:30.411Z,16.67
2018-11-14T00:59:58.439Z,18.90
2018-11-14T01:02:26.258Z,20.00
2018-11-14T01:04:54.111Z,19.23
2018-11-14T01:07:21.991Z,18.07
2018-11-14T01:09:49.983Z,19.83
2018-11-14T01:12:17.889Z,20.97
2018-11-14T01:14:45.770Z,21.67
2018-11-14T01:17:13.693Z,21.33
2018-11-14T01:19:41.649Z,19.20
2018-11-14T01:22:09.581Z,18.73
2018-11-14T01:24:37.427Z,19.67
2018-11-14T01:27:05.400Z,18.30
2018-11-14T01:29:33.320Z,18.73
2018-11-14T01:32:01.159Z,22.47
2018-11-14T01:34:29.011Z,19.43
2018-11-14T01:36:56.903Z,20.07
2018-11-14T01:39:24.760Z,18.93
2018-11-14T01:41:52.653Z,23.63
2018-11-14T01:44:20.620Z,24.93
2018-11-14T01:46:48.464Z,22.63
2018-11-14T01:49:16.318Z,22.37
2018-11-14T01:51:44.243Z,20.37
2018-11-14T01:54:12.101Z,20.20
2018-11-14T01:56:39.970Z,19.00
2018-11-14T01:59:07.843Z,20.50
2018-11-14T02:01:35.718Z,22.37
2018-11-14T02:04:03.618Z,21.87
2018-11-14T02:06:31.562Z,19.83
2018-11-14T02:08:59.454Z,20.93
2018-11-14T02:11:27.364Z,19.40
2018-11-14T02:13:55.268Z,19.13
2018-11-14T02:16:23.222Z,17.17
2018-11-14T02:18:51.439Z,19.83
2018-11-14T02:21:19.485Z,18.60
2018-11-14T02:23:47.393Z,20.17
2018-11-14T02:26:15.312Z,20.33
2018-11-14T02:28:43.295Z,18.90
2018-11-14T02:31:11.199Z,20.67
2018-11-14T02:33:39.092Z,18.70
2018-11-14T02:36:07.044Z,20.33
2018-11-14T02:38:34.938Z,18.87
2018-11-14T02:41:02.838Z,17.57
2018-11-14T02:43:30.774Z,16.90
2018-11-14T02:45:58.671Z,18.43
2018-11-14T02:48:26.635Z,16.23
2018-11-14T02:51:05.833Z,16.67
2018-11-14T02:53:33.719Z,17.53
2018-11-14T02:56:10.894Z,15.90
2018-11-14T02:58:38.868Z,19.00
2018-11-14T03:01:07.190Z,17.83
2018-11-14T03:03:35.135Z,18.00
2018-11-14T03:06:03.079Z,16.70
2018-11-14T03:08:30.968Z,17.23
2018-11-14T03:10:58.893Z,17.30
2018-11-14T03:13:26.800Z,14.73
2018-11-14T03:15:54.707Z,14.87
2018-11-14T03:18:22.660Z,16.30
2018-11-14T03:20:50.724Z,17.00
2018-11-14T03:23:18.865Z,13.87
2018-11-14T03:25:46.931Z,15.87
2018-11-14T03:28:14.939Z,13.47
2018-11-14T03:30:42.918Z,12.80
2018-11-14T03:33:10.954Z,14.50
2018-11-14T03:35:44.599Z,15.20
2018-11-14T03:38:12.635Z,13.70
2018-11-14T03:40:40.635Z,14.70
2018-11-14T03:43:08.606Z,16.33
2018-11-14T03:45:36.632Z,13.83
2018-11-14T03:48:04.771Z,15.67
2018-11-14T03:50:32.770Z,13.50
2018-11-14T03:53:00.843Z,13.37
2018-11-14T03:55:28.826Z,14.73
2018-11-14T03:57:56.802Z,14.20
2018-11-14T04:00:24.814Z,12.70
2018-11-14T04:02:52.774Z,13.40
2018-11-14T04:05:20.752Z,14.80
2018-11-14T04:07:48.796Z,14.30
2018-11-14T04:10:16.762Z,14.40
2018-11-14T04:12:44.744Z,18.60
2018-11-14T04:15:13.768Z,15.30
2018-11-14T04:18:44.848Z,17.40
2018-11-14T04:21:12.853Z,17.10
2018-11-14T04:23:48.231Z,18.20
2018-11-14T04:26:16.585Z,19.40
2018-11-14T04:28:44.942Z,20.63
2018-11-14T04:31:12.872Z,20.23
2018-11-14T04:33:40.814Z,21.17
2018-11-14T04:36:08.722Z,19.97
2018-11-14T04:38:36.622Z,20.43
2018-11-14T04:41:04.628Z,19.60
2018-11-14T04:43:32.529Z,22.97
2018-11-14T04:46:00.430Z,20.80
2018-11-14T04:48:28.967Z,22.53
2018-11-14T04:50:56.934Z,20.13
2018-11-14T04:53:24.826Z,21.53
2018-11-14T04:55:52.786Z,21.60
2018-11-14T04:58:20.674Z,21.43
2018-11-14T05:03:40.887Z,20.60
2018-11-14T05:06:08.761Z,20.27
2018-11-14T05:08:36.637Z,19.47
2018-11-14T05:11:04.727Z,19.57
2018-11-14T05:13:32.616Z,19.33
2018-11-14T05:16:00.527Z,19.53
2018-11-14T05:18:28.446Z,19.30
2018-11-14T05:20:56.339Z,19.13
2018-11-14T05:23:24.234Z,17.77
2018-11-14T05:25:52.267Z,18.50
2018-11-14T05:28:20.202Z,18.07
2018-11-14T05:30:48.096Z,19.03
2018-11-14T05:33:16.007Z,20.87
2018-11-14T05:35:43.882Z,20.73
2018-11-14T05:38:11.854Z,20.10
2018-11-14T05:40:39.767Z,20.47
2018-11-14T05:43:07.644Z,19.93
2018-11-14T05:45:35.633Z,19.63
2018-11-14T05:48:03.555Z,19.43
2018-11-14T05:50:31.466Z,18.17
2018-11-14T05:52:59.399Z,15.90
2018-11-14T05:55:27.337Z,16.23
2018-11-14T05:57:55.238Z,17.57
2018-11-14T06:00:29.419Z,16.13
2018-11-14T06:02:57.911Z,16.13
2018-11-14T06:05:26.027Z,15.43
2018-11-14T06:07:54.438Z,15.03
2018-11-14T06:10:22.387Z,13.87
2018-11-14T06:12:50.302Z,13.87
2018-11-14T06:15:19.494Z,14.23
2018-11-14T06:17:47.971Z,13.67
2018-11-14T06:20:18.238Z,15.00
2018-11-14T06:22:47.082Z,14.93
2018-11-14T06:25:22.715Z,14.23
2018-11-14T06:27:52.354Z,14.47
2018-11-14T06:30:26.238Z,15.23
2018-11-14T06:32:56.438Z,16.33
2018-11-14T06:35:24.409Z,15.60
2018-11-14T06:37:53.096Z,14.70
2018-11-14T06:40:23.112Z,14.63
2018-11-14T06:42:51.038Z,14.80
2018-11-14T06:45:23.486Z,14.70
2018-11-14T06:47:53.236Z,14.23
2018-11-14T06:50:21.436Z,13.40
2018-11-14T06:52:50.835Z,14.00
2018-11-14T06:55:19.426Z,14.37
2018-11-14T06:57:47.711Z,13.90
2018-11-14T07:00:48.614Z,15.00
2018-11-14T07:03:16.804Z,15.10
2018-11-14T07:05:44.784Z,13.87
2018-11-14T07:08:12.627Z,12.50
2018-11-14T07:10:40.515Z,16.27
2018-11-14T07:13:10.510Z,15.37
2018-11-14T07:15:39.241Z,15.70
2018-11-14T07:18:08.278Z,14.93
2018-11-14T07:20:37.629Z,14.83
2018-11-14T07:23:05.826Z,16.60
2018-11-14T07:32:18.169Z,17.10
2018-11-14T07:34:45.996Z,15.93
2018-11-14T07:37:13.886Z,17.97
2018-11-14T07:39:41.786Z,17.73
2018-11-14T07:42:09.684Z,17.60
2018-11-14T07:44:37.596Z,19.10
2018-11-14T07:47:05.574Z,19.60
2018-11-14T07:49:33.458Z,19.77
2018-11-14T07:52:01.358Z,20.53
2018-11-14T07:54:29.377Z,19.90
2018-11-14T07:56:57.307Z,19.20
2018-11-14T07:59:25.203Z,19.13
2018-11-14T08:01:53.144Z,19.03
2018-11-14T08:04:21.041Z,17.90
2018-11-14T08:06:49.030Z,18.23
2018-11-14T08:09:17.002Z,16.90
2018-11-14T08:11:44.924Z,18.03
2018-11-14T08:14:12.816Z,17.87
2018-11-14T08:16:40.744Z,18.13
2018-11-14T08:19:08.646Z,17.17
2018-11-14T08:21:36.566Z,17.97
2018-11-14T08:24:04.516Z,18.03
2018-11-14T08:26:32.397Z,17.63
2018-11-14T08:29:00.276Z,18.53
2018-11-14T08:31:28.195Z,19.83
2018-11-14T08:33:56.272Z,20.10
2018-11-14T08:36:24.170Z,20.60
2018-11-14T08:38:52.243Z,21.77
2018-11-14T08:41:20.150Z,22.97
2018-11-14T08:43:48.030Z,23.43
2018-11-14T08:46:15.949Z,23.17
2018-11-14T08:48:43.832Z,24.30
2018-11-14T08:51:11.735Z,26.87
2018-11-14T08:53:39.711Z,27.33
2018-11-14T08:56:07.642Z,26.67
2018-11-14T08:58:35.527Z,27.23
2018-11-14T09:01:03.592Z,23.60
2018-11-14T09:03:31.470Z,22.13
2018-11-14T09:05:59.363Z,21.37
2018-11-14T09:08:27.274Z,21.77
2018-11-14T09:10:55.378Z,19.40
2018-11-14T09:13:23.244Z,18.90
2018-11-14T09:15:51.185Z,19.03
2018-11-14T09:18:19.184Z,19.53
2018-11-14T09:20:46.998Z,20.17
2018-11-14T09:23:15.003Z,20.13
2018-11-14T09:25:42.902Z,19.40
2018-11-14T09:28:10.831Z,19.43
2018-11-14T09:30:38.765Z,18.90
2018-11-14T09:33:06.673Z,19.83
2018-11-14T09:35:35.012Z,17.77
2018-11-14T09:38:03.001Z,17.57
2018-11-14T09:40:30.944Z,17.83
2018-11-14T09:42:58.950Z,17.97
2018-11-14T09:45:29.069Z,18.17
2018-11-14T09:47:57.052Z,16.80
2018-11-14T09:50:28.125Z,17.17
2018-11-14T09:52:58.430Z,18.00
2018-11-14T09:55:26.401Z,16.83
2018-11-14T09:57:54.334Z,17.23
2018-11-14T10:00:24.403Z,17.77
2018-11-14T10:02:54.388Z,16.43
2018-11-14T10:05:23.242Z,15.87
2018-11-14T10:07:51.312Z,16.43
2018-11-14T10:10:20.606Z,16.77
2018-11-14T10:12:48.549Z,17.83
2018-11-14T10:15:17.741Z,17.37
2018-11-14T10:17:46.164Z,17.07
2018-11-14T10:20:15.376Z,15.97
2018-11-14T10:22:43.908Z,17.07
2018-11-14T10:25:12.735Z,15.43
2018-11-14T10:27:41.610Z,15.97
2018-11-14T10:30:13.046Z,14.10
2018-11-14T10:32:41.630Z,15.53
2018-11-14T10:35:10.146Z,15.53
2018-11-14T10:37:44.347Z,15.60
2018-11-14T10:40:14.996Z,15.30
2018-11-14T10:42:57.984Z,16.00
2018-11-14T10:45:26.793Z,14.87
2018-11-14T10:47:54.751Z,14.20
2018-11-14T10:50:24.078Z,14.87
2018-11-14T10:52:51.974Z,15.57
2018-11-14T10:55:20.376Z,15.50
2018-11-14T10:57:48.323Z,15.33
2018-11-14T11:00:29.544Z,15.27
2018-11-14T11:03:04.132Z,16.10
2018-11-14T11:05:37.519Z,15.37
2018-11-14T11:08:11.182Z,16.13
2018-11-14T11:10:44.462Z,16.13
2018-11-14T11:13:18.032Z,15.77
2018-11-14T11:15:51.606Z,15.57
2018-11-14T11:18:23.890Z,15.87
2018-11-14T11:20:51.931Z,16.03
2018-11-14T11:23:19.931Z,16.37
2018-11-14T11:25:47.843Z,16.50
2018-11-14T11:28:15.754Z,16.30
2018-11-14T11:30:43.724Z,15.40
2018-11-14T11:33:11.680Z,15.07
2018-11-14T11:35:39.603Z,15.60
2018-11-14T11:38:07.610Z,16.70
2018-11-14T11:40:35.533Z,15.83
2018-11-14T11:43:04.458Z,15.67
2018-11-14T11:45:33.882Z,16.57
2018-11-14T11:48:02.397Z,16.63
2018-11-14T11:50:30.312Z,16.27
2018-11-14T11:52:59.358Z,16.93
2018-11-14T11:55:31.925Z,15.37
2018-11-14T11:58:08.243Z,16.40
2018-11-14T12:00:39.305Z,15.77
2018-11-14T12:03:07.146Z,15.13
2018-11-14T12:05:35.252Z,15.97
2018-11-14T12:08:04.099Z,16.13
2018-11-14T12:10:33.810Z,15.80
2018-11-14T12:13:01.707Z,15.67
2018-11-14T12:15:29.651Z,14.50
2018-11-14T12:17:57.546Z,15.17
2018-11-14T12:20:25.503Z,14.27
2018-11-14T12:22:53.454Z,13.83
2018-11-14T12:25:21.806Z,14.33
2018-11-14T12:27:49.687Z,13.83
2018-11-14T12:30:18.056Z,14.23
2018-11-14T12:32:45.883Z,17.00
2018-11-14T12:35:15.165Z,14.03
2018-11-14T12:37:43.257Z,13.40
2018-11-14T12:40:12.491Z,12.87
2018-11-14T12:42:40.410Z,13.40
2018-11-14T12:45:10.680Z,13.43
2018-11-14T12:47:38.591Z,13.53
2018-11-14T12:50:07.122Z,13.50
2018-11-14T12:52:35.171Z,12.10
2018-11-14T12:55:03.176Z,12.03
2018-11-14T12:57:31.791Z,13.73
2018-11-14T12:59:59.752Z,13.60
2018-11-14T13:02:27.628Z,13.50
2018-11-14T13:04:55.500Z,13.40
2018-11-14T13:07:23.461Z,12.60
2018-11-14T13:09:51.362Z,14.57
2018-11-14T13:12:19.401Z,13.17
2018-11-14T13:14:47.348Z,13.70
2018-11-14T13:17:15.650Z,14.23
2018-11-14T13:19:43.559Z,12.80
2018-11-14T13:22:11.510Z,13.10
2018-11-14T13:24:39.497Z,13.50
2018-11-14T13:27:07.394Z,12.70
2018-11-14T13:29:35.321Z,13.37
2018-11-14T13:32:03.227Z,13.37
2018-11-14T13:34:31.182Z,13.53
2018-11-14T13:36:59.728Z,13.93
2018-11-14T13:39:27.707Z,14.07
2018-11-14T13:41:55.717Z,14.53
2018-11-14T13:44:23.730Z,13.67
2018-11-14T13:46:51.632Z,15.30
2018-11-14T13:49:19.792Z,15.53
2018-11-14T13:51:47.627Z,14.80
2018-11-14T13:54:16.519Z,14.60
2018-11-14T13:56:44.531Z,22.60
2018-11-14T13:59:12.537Z,15.67
2018-11-14T14:01:40.432Z,14.63
2018-11-14T14:04:08.360Z,15.43
2018-11-14T14:06:36.367Z,16.17
2018-11-14T14:09:07.416Z,15.77
2018-11-14T14:11:35.316Z,15.73
2018-11-14T14:14:10.627Z,14.97
2018-11-14T14:16:39.179Z,16.93
2018-11-14T14:19:07.551Z,16.87
2018-11-14T14:21:36.326Z,15.87
2018-11-14T14:24:04.323Z,15.90
2018-11-14T14:26:32.343Z,16.97
2018-11-14T14:29:00.485Z,16.47
2018-11-14T14:31:29.104Z,16.23
2018-11-14T14:33:57.036Z,15.23
2018-11-14T14:36:25.865Z,15.93
2018-11-14T14:38:53.877Z,16.77
2018-11-14T14:41:21.833Z,17.03
2018-11-14T14:43:49.814Z,17.13
2018-11-14T14:46:17.713Z,18.97
2018-11-14T14:48:45.627Z,18.87
2018-11-14T14:51:13.567Z,20.47
2018-11-14T14:53:41.507Z,19.30
2018-11-14T14:56:09.506Z,19.73
2018-11-14T14:58:37.405Z,19.67
2018-11-14T15:01:05.761Z,19.17
2018-11-14T15:03:35.941Z,19.43
2018-11-14T15:06:04.028Z,19.53
2018-11-14T15:08:32.094Z,21.93
2018-11-14T15:11:00.025Z,21.60
2018-11-14T15:13:27.991Z,22.23
2018-11-14T15:15:55.936Z,21.10
2018-11-14T15:18:23.857Z,20.23
2018-11-14T15:20:51.780Z,21.53
2018-11-14T15:23:19.702Z,19.63
2018-11-14T15:25:47.611Z,20.67
2018-11-14T15:28:15.639Z,21.27
2018-11-14T15:30:44.392Z,19.80
2018-11-14T15:33:12.355Z,20.87
2018-11-14T15:35:40.946Z,21.23
2018-11-14T15:38:09.485Z,19.97
2018-11-14T15:40:38.542Z,19.93
2018-11-14T15:43:08.342Z,20.13
2018-11-14T15:45:37.260Z,19.50
2018-11-14T15:48:06.105Z,19.67
2018-11-14T15:50:35.762Z,21.47
2018-11-14T15:53:04.030Z,20.13
2018-11-14T15:55:32.870Z,19.70
2018-11-14T15:58:00.913Z,19.10
2018-11-14T16:00:32.410Z,19.67
2018-11-14T16:03:02.201Z,19.70
2018-11-14T16:05:32.211Z,18.30
2018-11-14T16:08:04.395Z,20.17
2018-11-14T16:10:33.262Z,22.07
2018-11-14T16:13:05.185Z,24.13
2018-11-14T16:15:35.520Z,23.47
2018-11-14T16:18:04.201Z,21.60
2018-11-14T16:20:34.140Z,22.77
2018-11-14T16:23:08.011Z,22.47
2018-11-14T16:25:37.391Z,22.77
2018-11-14T16:28:05.679Z,20.10
2018-11-14T16:30:36.603Z,20.47
2018-11-14T16:33:07.070Z,19.57
2018-11-14T16:35:38.551Z,19.23
2018-11-14T16:38:08.515Z,19.30
2018-11-14T16:40:37.423Z,20.23
2018-11-14T16:43:11.701Z,20.43
2018-11-14T16:45:41.096Z,23.90
2018-11-14T16:48:12.214Z,22.47
2018-11-14T16:50:40.179Z,23.73
2018-11-14T16:53:08.962Z,22.53
2018-11-14T16:55:39.691Z,21.50
2018-11-14T16:58:07.618Z,22.80
2018-11-14T17:00:37.270Z,22.97
2018-11-14T17:03:05.334Z,24.20
2018-11-14T17:05:35.334Z,25.80
2018-11-14T17:08:06.591Z,24.40
2018-11-14T17:10:39.804Z,25.37
2018-11-14T17:13:08.510Z,26.20
2018-11-14T17:15:38.073Z,27.97
2018-11-14T17:21:03.216Z,26.07
2018-11-14T17:23:31.279Z,25.70
2018-11-14T17:26:02.374Z,27.10
2018-11-14T17:28:30.517Z,26.97
2018-11-14T17:30:59.287Z,31.97
2018-11-14T17:33:28.392Z,30.17
2018-11-14T17:35:57.131Z,27.67
2018-11-14T17:38:25.576Z,27.83
2018-11-14T17:40:55.344Z,26.17
2018-11-14T17:43:24.974Z,28.13
2018-11-14T17:45:54.459Z,28.80
2018-11-14T17:48:24.682Z,23.87
2018-11-14T17:50:53.958Z,25.10
2018-11-14T17:53:23.098Z,26.50
2018-11-14T17:55:52.039Z,26.90
2018-11-14T17:58:21.608Z,26.03
2018-11-14T18:00:52.296Z,28.20
2018-11-14T18:03:22.305Z,26.43
2018-11-14T18:05:53.407Z,23.73
2018-11-14T18:08:24.796Z,25.70
2018-11-14T18:10:57.744Z,26.77
2018-11-14T18:13:28.894Z,27.63
2018-11-14T18:16:00.161Z,28.93
2018-11-14T18:18:33.076Z,27.27
2018-11-14T18:21:01.454Z,27.37
2018-11-14T18:23:31.658Z,25.30
2018-11-14T18:26:08.694Z,24.27
2018-11-14T18:28:38.518Z,26.43
2018-11-14T18:31:08.946Z,26.63
2018-11-14T18:33:40.304Z,34.93
2018-11-14T18:36:09.242Z,41.73
2018-11-14T18:38:38.623Z,37.77
2018-11-14T18:41:07.213Z,49.17
2018-11-14T18:43:36.751Z,48.80
2018-11-14T18:46:08.375Z,46.50
2018-11-14T18:48:37.843Z,40.83
2018-11-14T18:51:06.952Z,40.87
2018-11-14T18:53:38.306Z,35.00
2018-11-14T18:56:08.090Z,33.70
2018-11-14T18:58:40.725Z,32.43
2018-11-14T19:01:10.004Z,29.97
2018-11-14T19:03:44.335Z,32.20
2018-11-14T19:06:18.749Z,33.90
2018-11-14T19:08:49.513Z,39.87
2018-11-14T19:11:18.780Z,39.70
2018-11-14T19:13:50.027Z,36.13
2018-11-14T19:16:19.119Z,39.30
2018-11-14T19:18:48.936Z,38.83
2018-11-14T19:21:26.487Z,41.47
2018-11-14T19:23:57.607Z,45.70
2018-11-14T19:26:25.979Z,38.53
2018-11-14T19:28:55.238Z,35.40
2018-11-14T19:31:24.242Z,39.60
2018-11-14T19:33:54.337Z,32.97
2018-11-14T19:36:25.020Z,36.43
2018-11-14T19:38:53.650Z,36.07
2018-11-14T19:41:29.558Z,33.30
2018-11-14T19:44:01.207Z,33.80
2018-11-14T19:46:30.849Z,33.90
2018-11-14T19:49:01.235Z,34.40
2018-11-14T19:51:31.394Z,33.83
2018-11-14T19:54:00.008Z,32.17
2018-11-14T19:56:30.359Z,34.30
2018-11-14T19:59:00.046Z,31.47
2018-11-14T20:01:29.540Z,32.23
2018-11-14T20:03:58.163Z,28.63
2018-11-14T20:06:28.964Z,36.17
2018-11-14T20:08:59.049Z,33.37
2018-11-14T20:11:29.225Z,33.13
2018-11-14T20:13:58.216Z,30.63
2018-11-14T20:16:29.216Z,31.37
2018-11-14T20:18:58.486Z,27.77
2018-11-14T20:21:27.373Z,26.93
2018-11-14T20:23:56.235Z,28.87
2018-11-14T20:26:27.016Z,26.57
2018-11-14T20:28:56.598Z,26.13
2018-11-14T20:31:26.862Z,24.73
2018-11-14T20:33:59.185Z,24.87
2018-11-14T20:36:28.608Z,25.50
2018-11-14T20:38:58.273Z,24.20
2018-11-14T20:41:27.304Z,25.57
2018-11-14T20:43:56.155Z,23.83
2018-11-14T20:46:24.989Z,24.90
2018-11-14T20:48:57.662Z,25.03
2018-11-14T20:51:25.918Z,25.33
2018-11-14T20:53:56.540Z,25.27
2018-11-14T20:56:32.298Z,25.13
2018-11-14T20:59:02.166Z,23.77
2018-11-14T21:01:31.861Z,22.13
2018-11-14T21:04:00.655Z,22.30
2018-11-14T21:06:32.079Z,23.73
2018-11-14T21:09:00.062Z,24.17
2018-11-14T21:11:28.627Z,24.43
2018-11-14T21:13:56.730Z,27.70
2018-11-14T21:16:25.284Z,25.83
2018-11-14T21:18:57.562Z,27.37
2018-11-14T21:21:25.534Z,26.40
2018-11-14T21:23:54.016Z,28.53
2018-11-14T21:26:21.951Z,29.17
2018-11-14T21:28:49.886Z,26.53
2018-11-14T21:31:19.491Z,24.87
2018-11-14T21:33:50.643Z,27.17
2018-11-14T21:36:21.395Z,26.50
2018-11-14T21:38:49.894Z,26.30
2018-11-14T21:41:18.697Z,25.83
2018-11-14T21:43:48.058Z,25.43
2018-11-14T21:46:17.202Z,33.30
2018-11-14T21:48:45.649Z,30.57
2018-11-14T21:51:14.194Z,28.87
2018-11-14T21:53:43.102Z,29.37
2018-11-14T21:56:11.779Z,27.50
2018-11-14T21:58:40.482Z,27.97
2018-11-14T22:01:08.422Z,26.93
2018-11-14T22:03:36.358Z,32.60
2018-11-14T22:06:04.373Z,42.00
2018-11-14T22:08:35.237Z,43.13
2018-11-14T22:11:04.356Z,38.20
2018-11-14T22:13:32.288Z,39.07
2018-11-14T22:16:00.207Z,34.53
2018-11-14T22:18:28.244Z,34.33
2018-11-14T22:20:57.174Z,33.13
2018-11-14T22:23:25.134Z,32.80
2018-11-14T22:25:54.046Z,32.47
2018-11-14T22:28:21.991Z,31.57
2018-11-14T22:30:49.974Z,29.57
2018-11-14T22:33:17.967Z,27.73
2018-11-14T22:35:45.891Z,27.10
2018-11-14T22:38:13.849Z,26.63
2018-11-14T22:40:41.818Z,27.77
2018-11-14T22:43:09.722Z,26.93
2018-11-14T22:45:37.765Z,26.13
2018-11-14T22:48:05.734Z,26.73
2018-11-14T22:50:33.799Z,29.17
2018-11-14T22:53:01.732Z,29.97
2018-11-14T22:55:29.784Z,30.47
2018-11-14T22:57:58.029Z,27.80
2018-11-14T23:00:28.687Z,26.53
2018-11-14T23:02:57.844Z,27.43
2018-11-14T23:05:25.841Z,28.30
2018-11-14T23:07:54.691Z,26.30
2018-11-14T23:10:23.573Z,28.20
2018-11-14T23:12:51.836Z,28.00
2018-11-14T23:15:20.545Z,34.33
2018-11-14T23:17:48.744Z,35.90
2018-11-14T23:20:17.293Z,33.43
2018-11-14T23:22:46.068Z,32.47
2018-11-14T23:25:14.505Z,33.47
2018-11-14T23:27:43.651Z,31.13
2018-11-14T23:30:12.611Z,28.47
2018-11-14T23:32:42.071Z,29.10
2018-11-14T23:35:15.613Z,29.57
2018-11-14T23:37:44.961Z,29.07
2018-11-14T23:40:12.856Z,34.40
2018-11-14T23:42:40.895Z,32.67
2018-11-14T23:45:11.627Z,31.13
2018-11-14T23:47:39.867Z,30.00
2018-11-14T23:50:11.030Z,30.50
2018-11-14T23:52:39.086Z,30.23
2018-11-14T23:55:07.577Z,32.17
2018-11-14T23:57:35.504Z,32.27
